Spangle, WA (99031)

8:18 AM PST on February 06, 2016 (GMT -0800)
APRSWXNET | | Change Station
CLOSE
Current Station
Personal Weather Station
Location: Spangle, WA
Elevation: 2344 ft
Nearby Weather Stations

Elev 2344 ft 47.48 °N, 117.46 °W | Updated 22 minutes ago

Mostly Cloudy
Mostly Cloudy
34 °F
Feels Like 30 °F
N
4
Wind Variable Wind from SW
Gusts 7.0 mph

Today
High -- | Low -- °F
--% Chance of Precip.
Yesterday
High -- | Low -- °F
Precip. -- in
Pressure 30.28 in
Visibility 10.0 miles
Clouds Few 4000 ft
Few 10000 ft
Scattered Clouds 15000 ft
Mostly Cloudy 20000 ft
Windchill 30 °F
Dew Point 31 °F
Humidity 88%
Rainfall in
Snow Depth Not available.
7:09 AM 4:58 PM
Waning Crescent, 5% visible
METAR KGEG 061453Z 22017KT 10SM FEW040 FEW100 SCT150 BKN200 01/M02 A3024 RMK AO2 SLP254 T00111022 51030
Pressure 30.28 in
Visibility 10.0 miles
Clouds Few 4000 ft
Few 10000 ft
Scattered Clouds 15000 ft
Mostly Cloudy 20000 ft
Windchill 30 °F
Dew Point 31 °F
Humidity 88%
Rainfall in
Snow Depth Not available.
7:09 AM 4:58 PM
Waning Crescent, 5% visible
METAR KGEG 061453Z 22017KT 10SM FEW040 FEW100 SCT150 BKN200 01/M02 A3024 RMK AO2 SLP254 T00111022 51030

10-Day Weather Forecast

Almanac

Astronomy

Feb. 06, 2016 Rise Set
Actual Time
Civil Twilight
Nautical Twilight
Astronomical Twilight
Moon
Length of Visible Light
Length of Day
Tomorrow will be .
, % of the Moon is Illuminated

Today's Extremes

State Highs State Lows

Community

WunderPhotos

Upload Photos

1,891,004 photos uploaded!

WunderBlog® & News

Nearby

Air Quality

  Air Quality AQ Index Pollutant
Not available.

Snow Depth

Station Depth Elevation

Earthquake Activity

City Distance Mag. Time & Date
Minimum magnitude displayed is 2.5.

Coastal Water Temperatures

Place Temperature

Stations

Nearby Weather Stations

Station Location Temp. Windchill Dew Point Humidity Wind Precip. Elev Updated Type
                   

Watches & Warnings

There are currently no watches in effect.